createdAt,value
2023-03-16T00:00:35.432Z,96565.59
2023-03-16T00:03:04.641Z,96564.59
2023-03-16T00:05:34.801Z,96559.81
2023-03-16T00:08:02.718Z,96564.47
2023-03-16T00:10:31.565Z,96562.78
2023-03-16T00:13:02.661Z,96567.72
2023-03-16T00:15:30.526Z,96572.50
2023-03-16T00:18:00.668Z,96569.28
2023-03-16T00:20:29.759Z,96574.63
2023-03-16T00:22:57.643Z,96570.50
2023-03-16T00:25:25.355Z,96565.38
2023-03-16T00:28:00.530Z,96571.50
2023-03-16T00:30:29.920Z,96576.81
2023-03-16T00:32:57.736Z,96570.69
2023-03-16T00:35:28.162Z,96574.91
2023-03-16T00:37:57.588Z,96574.91
2023-03-16T00:40:26.451Z,96575.13
2023-03-16T00:42:55.072Z,96566.66
2023-03-16T00:45:23.419Z,96563.72
2023-03-16T00:47:54.124Z,96569.31
2023-03-16T00:50:22.650Z,96565.84
2023-03-16T00:52:53.571Z,96571.72
2023-03-16T00:55:24.981Z,96574.31
2023-03-16T00:57:52.781Z,96579.63
2023-03-16T01:00:21.552Z,96576.16
2023-03-16T01:02:53.494Z,96571.59
2023-03-16T01:05:21.404Z,96583.84
2023-03-16T01:07:49.174Z,96580.56
2023-03-16T01:10:17.572Z,96576.56
2023-03-16T01:12:46.754Z,96568.84
2023-03-16T01:15:15.304Z,96570.44
2023-03-16T01:17:43.012Z,96571.19
2023-03-16T01:20:15.455Z,96569.91
2023-03-16T01:22:43.293Z,96567.78
2023-03-16T01:25:14.617Z,96563.13
2023-03-16T01:27:43.329Z,96558.41
2023-03-16T01:30:13.556Z,96559.00
2023-03-16T01:32:41.929Z,96562.88
2023-03-16T01:35:11.796Z,96554.09
2023-03-16T01:37:41.357Z,96549.56
2023-03-16T01:40:18.379Z,96546.84
2023-03-16T01:42:47.539Z,96544.41
2023-03-16T01:45:53.814Z,96532.19
2023-03-16T01:48:27.484Z,96537.75
2023-03-16T01:50:57.658Z,96531.84
2023-03-16T01:53:26.713Z,96533.97
2023-03-16T01:55:55.861Z,96533.97
2023-03-16T01:58:25.857Z,96521.69
2023-03-16T02:00:54.393Z,96521.69
2023-03-16T02:03:24.938Z,96519.28
2023-03-16T02:06:05.395Z,96523.00
2023-03-16T02:08:35.942Z,96516.06
2023-03-16T02:11:10.512Z,96509.75
2023-03-16T02:13:46.312Z,96511.06
2023-03-16T02:16:19.264Z,96517.91
2023-03-16T02:18:49.519Z,96516.53
2023-03-16T02:21:25.444Z,96529.63
2023-03-16T02:23:54.464Z,96536.00
2023-03-16T02:26:32.054Z,96534.59
2023-03-16T02:29:15.064Z,96535.31
2023-03-16T02:31:49.467Z,96531.94
2023-03-16T02:34:19.037Z,96537.50
2023-03-16T02:36:49.834Z,96538.47
2023-03-16T02:39:20.517Z,96528.97
2023-03-16T02:41:48.597Z,96531.84
2023-03-16T02:44:24.153Z,96534.75
2023-03-16T02:46:58.029Z,96537.97
2023-03-16T02:49:31.834Z,96532.56
2023-03-16T02:51:59.642Z,96528.53
2023-03-16T02:54:27.535Z,96539.97
2023-03-16T02:56:55.935Z,96537.78
2023-03-16T02:59:25.171Z,96531.03
2023-03-16T03:01:54.326Z,96535.84
2023-03-16T03:04:23.425Z,96538.88
2023-03-16T03:06:53.157Z,96539.50
2023-03-16T03:09:21.816Z,96540.31
2023-03-16T03:11:53.625Z,96548.06
2023-03-16T03:14:27.422Z,96542.75
2023-03-16T03:16:56.797Z,96528.41
2023-03-16T03:19:27.179Z,96528.41
2023-03-16T03:21:56.682Z,96522.84
2023-03-16T03:24:24.903Z,96521.25
2023-03-16T03:26:53.158Z,96524.72
2023-03-16T03:29:22.600Z,96533.72
2023-03-16T03:31:50.368Z,96520.44
2023-03-16T03:34:19.512Z,96531.41
2023-03-16T03:36:47.261Z,96519.00
2023-03-16T03:39:15.051Z,96511.03
2023-03-16T03:41:42.824Z,96504.34
2023-03-16T03:44:11.381Z,96505.97
2023-03-16T03:46:39.195Z,96504.03
2023-03-16T03:49:07.121Z,96501.03
2023-03-16T03:51:37.610Z,96499.91
2023-03-16T03:54:11.732Z,96505.47
2023-03-16T03:56:47.321Z,96500.16
2023-03-16T03:59:17.235Z,96509.97
2023-03-16T04:02:13.872Z,96509.06
2023-03-16T04:04:51.184Z,96513.81
2023-03-16T04:07:20.373Z,96516.63
2023-03-16T04:09:49.793Z,96508.06
2023-03-16T04:12:26.931Z,96522.16
2023-03-16T04:14:55.008Z,96518.69
2023-03-16T04:17:24.164Z,96503.56
2023-03-16T04:19:54.440Z,96497.53
2023-03-16T04:22:26.508Z,96491.75
2023-03-16T04:24:54.431Z,96493.97
2023-03-16T04:27:24.124Z,96504.59
2023-03-16T04:29:55.691Z,96502.47
2023-03-16T04:32:27.277Z,96513.91
2023-03-16T04:34:56.500Z,96512.22
2023-03-16T04:37:34.416Z,96504.34
2023-03-16T04:40:10.918Z,96494.25
2023-03-16T04:42:39.916Z,96493.00
2023-03-16T04:45:10.117Z,96490.09
2023-03-16T04:47:38.428Z,96489.03
2023-03-16T04:50:08.051Z,96492.81
2023-03-16T04:52:37.754Z,96478.66
2023-03-16T04:55:07.206Z,96479.91
2023-03-16T04:57:36.082Z,96490.81
2023-03-16T05:00:11.929Z,96487.81
2023-03-16T05:02:47.305Z,96485.66
2023-03-16T05:05:17.499Z,96484.69
2023-03-16T05:07:46.763Z,96486.53
2023-03-16T05:10:21.060Z,96481.56
2023-03-16T05:12:48.974Z,96479.91
2023-03-16T05:15:16.815Z,96476.38
2023-03-16T05:17:46.806Z,96476.72
2023-03-16T05:20:16.453Z,96477.50
2023-03-16T05:22:52.721Z,96467.69
2023-03-16T05:25:32.570Z,96469.28
2023-03-16T05:28:05.416Z,96466.88
2023-03-16T05:30:43.145Z,96480.09
2023-03-16T05:33:14.445Z,96477.75
2023-03-16T05:35:43.715Z,96475.19
2023-03-16T05:38:15.805Z,96474.13
2023-03-16T05:40:44.791Z,96474.13
2023-03-16T05:43:20.152Z,96469.97
2023-03-16T05:45:51.585Z,96479.53
2023-03-16T05:48:21.158Z,96465.69
2023-03-16T05:50:54.192Z,96468.69
2023-03-16T05:53:29.287Z,96479.69
2023-03-16T05:56:03.376Z,96478.25
2023-03-16T05:58:34.633Z,96487.44
2023-03-16T06:01:07.647Z,96481.75
2023-03-16T06:03:39.546Z,96479.97
2023-03-16T06:06:09.856Z,96476.34
2023-03-16T06:08:50.024Z,96480.44
2023-03-16T06:11:23.242Z,96476.25
2023-03-16T06:13:51.035Z,96468.84
2023-03-16T06:16:18.855Z,96464.63
2023-03-16T06:18:47.534Z,96487.03
2023-03-16T06:21:15.391Z,96475.91
2023-03-16T06:23:45.614Z,96477.84
2023-03-16T06:26:18.748Z,96478.88
2023-03-16T06:28:49.494Z,96482.09
2023-03-16T06:31:17.418Z,96488.81
2023-03-16T06:33:47.557Z,96480.31
2023-03-16T06:36:17.894Z,96472.97
2023-03-16T06:38:49.408Z,96476.56
2023-03-16T06:41:42.703Z,96467.41
2023-03-16T06:44:12.111Z,96461.09
2023-03-16T06:46:48.193Z,96470.03
2023-03-16T06:49:15.951Z,96469.09
2023-03-16T06:51:43.723Z,96467.09
2023-03-16T06:54:11.730Z,96465.66
2023-03-16T06:56:46.859Z,96466.50
2023-03-16T06:59:14.731Z,96465.00
2023-03-16T07:01:44.324Z,96459.53
2023-03-16T07:04:12.596Z,96459.69
2023-03-16T07:06:41.471Z,96457.91
2023-03-16T07:09:09.713Z,96453.97
2023-03-16T07:11:37.584Z,96459.56
2023-03-16T07:14:06.782Z,96468.50
2023-03-16T07:16:36.232Z,96467.75
2023-03-16T07:19:06.336Z,96473.69
2023-03-16T07:21:39.282Z,96466.00
2023-03-16T07:24:11.426Z,96466.34
2023-03-16T07:26:39.494Z,96465.88
2023-03-16T07:29:09.971Z,96471.03
2023-03-16T07:31:38.395Z,96476.41
2023-03-16T07:34:11.573Z,96482.28
2023-03-16T07:36:45.373Z,96481.81
2023-03-16T07:39:14.265Z,96481.56
2023-03-16T07:41:42.922Z,96484.00
2023-03-16T07:44:22.285Z,96482.97
2023-03-16T07:46:50.291Z,96479.53
2023-03-16T07:49:18.362Z,96483.84
2023-03-16T07:51:48.223Z,96486.00
2023-03-16T07:54:20.227Z,96482.78
2023-03-16T07:56:49.956Z,96488.97
2023-03-16T07:59:48.715Z,96489.22
2023-03-16T08:02:21.522Z,96481.47
2023-03-16T08:04:50.047Z,96482.03
2023-03-16T08:07:19.266Z,96489.25
2023-03-16T08:10:13.736Z,96491.13
2023-03-16T08:12:48.571Z,96486.81
2023-03-16T08:15:19.311Z,96490.28
2023-03-16T08:17:47.782Z,96485.97
2023-03-16T08:20:23.807Z,96486.25
2023-03-16T08:22:51.687Z,96499.09
2023-03-16T08:25:24.940Z,96496.63
2023-03-16T08:28:04.411Z,96490.16
2023-03-16T08:30:35.169Z,96487.47
2023-03-16T08:33:36.061Z,96490.00
2023-03-16T08:36:07.542Z,96496.44
2023-03-16T08:38:35.490Z,96488.31
2023-03-16T08:41:07.599Z,96490.69
2023-03-16T08:43:38.259Z,96489.56
2023-03-16T08:46:07.834Z,96492.63
2023-03-16T08:48:48.489Z,96491.84
2023-03-16T08:51:17.475Z,96491.22
2023-03-16T08:53:45.275Z,96495.44
2023-03-16T08:56:14.642Z,96488.91
2023-03-16T08:58:45.377Z,96496.59
2023-03-16T09:01:17.526Z,96505.91
2023-03-16T09:03:46.168Z,96500.03
2023-03-16T09:06:15.728Z,96497.00
2023-03-16T09:08:45.354Z,96502.09
2023-03-16T09:11:15.432Z,96500.41
2023-03-16T09:13:44.629Z,96496.34
2023-03-16T09:16:15.861Z,96499.41
2023-03-16T09:18:44.140Z,96507.78
2023-03-16T09:21:14.131Z,96501.09
2023-03-16T09:23:43.045Z,96505.63
2023-03-16T09:26:13.269Z,96508.28
2023-03-16T09:28:42.983Z,96503.84
2023-03-16T09:31:16.573Z,96500.06
2023-03-16T09:33:46.321Z,96500.28
2023-03-16T09:36:14.211Z,96501.16
2023-03-16T09:38:43.807Z,96496.84
2023-03-16T09:41:23.704Z,96494.63
2023-03-16T09:44:04.710Z,96494.53
2023-03-16T09:46:35.810Z,96498.97
2023-03-16T09:49:06.138Z,96479.91
2023-03-16T09:51:39.699Z,96490.50
2023-03-16T09:54:19.211Z,96499.00
2023-03-16T09:56:47.757Z,96491.03
2023-03-16T09:59:18.355Z,96486.44
2023-03-16T10:01:57.048Z,96484.44
2023-03-16T10:04:41.649Z,96478.84
2023-03-16T10:07:26.165Z,96471.16
2023-03-16T10:09:58.763Z,96477.00
2023-03-16T10:12:32.930Z,96477.44
2023-03-16T10:15:07.207Z,96476.91
2023-03-16T10:17:42.382Z,96479.66
2023-03-16T10:20:18.274Z,96458.69
2023-03-16T10:22:48.171Z,96457.78
2023-03-16T10:25:23.267Z,96458.91
2023-03-16T10:27:51.973Z,96461.28
2023-03-16T10:30:25.804Z,96456.56
2023-03-16T10:32:53.878Z,96449.38
2023-03-16T10:35:31.510Z,96443.25
2023-03-16T10:38:00.004Z,96440.38
2023-03-16T10:40:32.694Z,96445.38
2023-03-16T10:43:06.762Z,96436.47
2023-03-16T10:45:37.014Z,96447.75
2023-03-16T10:48:09.461Z,96423.19
2023-03-16T10:50:38.625Z,96426.63
2023-03-16T10:53:18.137Z,96422.84
2023-03-16T10:55:46.079Z,96423.41
2023-03-16T10:58:25.180Z,96413.88
2023-03-16T11:00:53.578Z,96413.28
2023-03-16T11:03:25.498Z,96415.03
2023-03-16T11:06:02.595Z,96405.31
2023-03-16T11:08:34.508Z,96406.50
2023-03-16T11:11:11.003Z,96408.09
2023-03-16T11:13:44.931Z,96397.28
2023-03-16T11:16:24.912Z,96394.22
2023-03-16T11:18:57.465Z,96388.31
2023-03-16T11:21:39.536Z,96382.06
2023-03-16T11:24:16.033Z,96376.78
2023-03-16T11:26:53.112Z,96370.91
2023-03-16T11:29:28.038Z,96374.28
2023-03-16T11:31:59.814Z,96368.19
2023-03-16T11:34:29.596Z,96371.91
2023-03-16T11:37:06.451Z,96373.66
2023-03-16T11:39:41.639Z,96374.47
2023-03-16T11:42:20.583Z,96369.84
2023-03-16T11:44:59.268Z,96360.13
2023-03-16T11:47:59.673Z,96363.41
2023-03-16T11:50:33.006Z,96353.97
2023-03-16T11:53:07.599Z,96356.25
2023-03-16T11:55:44.695Z,96350.50
2023-03-16T11:58:31.615Z,96351.38
2023-03-16T12:01:12.607Z,96350.59
2023-03-16T12:03:53.765Z,96363.06
2023-03-16T12:06:31.404Z,96354.09
2023-03-16T12:09:30.120Z,96356.75
2023-03-16T12:12:04.666Z,96349.53
2023-03-16T12:14:38.210Z,96349.97
2023-03-16T12:17:13.124Z,96349.50
2023-03-16T12:19:46.331Z,96349.59
2023-03-16T12:22:21.472Z,96341.66
2023-03-16T12:24:58.244Z,96337.91
2023-03-16T12:27:31.461Z,96344.59
2023-03-16T12:30:09.350Z,96347.31
2023-03-16T12:32:50.216Z,96344.41
2023-03-16T12:35:29.002Z,96341.03
2023-03-16T12:38:06.317Z,96341.16
2023-03-16T12:40:44.562Z,96332.94
2023-03-16T12:43:31.064Z,96328.09
2023-03-16T12:46:05.642Z,96326.41
2023-03-16T12:48:37.820Z,96331.38
2023-03-16T12:51:06.202Z,96325.31
2023-03-16T12:53:44.423Z,96318.03
2023-03-16T12:56:16.485Z,96316.75
2023-03-16T12:58:47.058Z,96319.16
2023-03-16T13:01:17.190Z,96314.06
2023-03-16T13:03:48.059Z,96319.75
2023-03-16T13:06:24.813Z,96320.41
2023-03-16T13:08:59.670Z,96315.75
2023-03-16T13:11:29.613Z,96323.81
2023-03-16T13:14:10.988Z,96318.34
2023-03-16T13:16:40.245Z,96312.13
2023-03-16T13:19:27.227Z,96307.16
2023-03-16T13:22:04.362Z,96309.88
2023-03-16T13:24:43.178Z,96308.00
2023-03-16T13:27:23.225Z,96307.63
2023-03-16T13:29:59.601Z,96308.47
2023-03-16T13:32:31.690Z,96308.00
2023-03-16T13:35:02.185Z,96304.38
2023-03-16T13:37:31.210Z,96296.28
2023-03-16T13:40:01.747Z,96294.59
2023-03-16T13:42:33.131Z,96296.28
2023-03-16T13:45:12.375Z,96295.03
2023-03-16T13:47:43.579Z,96298.69
2023-03-16T13:50:13.660Z,96285.84
2023-03-16T13:52:44.891Z,96286.59
2023-03-16T13:55:19.502Z,96292.88
2023-03-16T13:57:49.860Z,96287.09
2023-03-16T14:00:22.025Z,96283.97
2023-03-16T14:02:55.539Z,96289.66
2023-03-16T14:05:25.895Z,96281.25
2023-03-16T14:07:54.905Z,96278.69
2023-03-16T14:10:24.027Z,96276.66
2023-03-16T14:12:54.095Z,96273.69
2023-03-16T14:15:25.883Z,96271.53
2023-03-16T14:17:54.083Z,96265.16
2023-03-16T14:20:25.488Z,96261.63
2023-03-16T14:22:54.612Z,96261.06
2023-03-16T14:25:29.054Z,96260.16
2023-03-16T14:28:07.390Z,96251.88
2023-03-16T14:30:35.710Z,96247.59
2023-03-16T14:33:06.632Z,96242.47
2023-03-16T14:35:41.770Z,96251.44
2023-03-16T14:38:23.294Z,96249.31
2023-03-16T14:40:56.727Z,96254.09
2023-03-16T14:43:31.360Z,96246.69
2023-03-16T14:46:00.023Z,96240.88
2023-03-16T14:48:30.250Z,96237.81
2023-03-16T14:51:00.919Z,96248.00
2023-03-16T14:53:29.226Z,96248.69
2023-03-16T14:55:57.726Z,96254.44
2023-03-16T14:58:29.294Z,96247.16
2023-03-16T15:00:57.921Z,96258.16
2023-03-16T15:03:32.918Z,96247.09
2023-03-16T15:06:01.338Z,96240.94
2023-03-16T15:08:32.808Z,96244.34
2023-03-16T15:11:04.909Z,96246.66
2023-03-16T15:13:53.184Z,96248.59
2023-03-16T15:16:23.016Z,96236.88
2023-03-16T15:18:51.810Z,96239.78
2023-03-16T15:21:24.573Z,96240.34
2023-03-16T15:23:52.972Z,96241.53
2023-03-16T15:26:27.173Z,96233.09
2023-03-16T15:28:58.127Z,96233.69
2023-03-16T15:31:26.712Z,96236.63
2023-03-16T15:33:54.592Z,96232.53
2023-03-16T15:36:24.305Z,96225.38
2023-03-16T15:38:55.058Z,96227.75
2023-03-16T15:41:24.926Z,96234.13
2023-03-16T15:44:00.516Z,96222.81
2023-03-16T15:46:32.818Z,96225.22
2023-03-16T15:49:00.710Z,96222.19
2023-03-16T15:51:30.933Z,96224.50
2023-03-16T15:54:02.690Z,96216.34
2023-03-16T15:56:50.952Z,96219.41
2023-03-16T15:59:22.190Z,96220.38
2023-03-16T16:01:52.668Z,96209.25
2023-03-16T16:04:24.206Z,96210.56
2023-03-16T16:06:55.008Z,96205.78
2023-03-16T16:09:23.101Z,96201.22
2023-03-16T16:11:51.349Z,96207.75
2023-03-16T16:14:24.650Z,96209.72
2023-03-16T16:16:56.839Z,96209.78
2023-03-16T16:19:25.448Z,96213.91
2023-03-16T16:21:56.672Z,96212.88
2023-03-16T16:24:25.141Z,96208.69
2023-03-16T16:26:55.287Z,96214.31
2023-03-16T16:29:27.129Z,96209.06
2023-03-16T16:31:56.309Z,96208.78
2023-03-16T16:34:25.561Z,96212.94
2023-03-16T16:36:54.017Z,96214.03
2023-03-16T16:39:22.766Z,96210.16
2023-03-16T16:41:54.352Z,96215.56
2023-03-16T16:44:24.600Z,96205.34
2023-03-16T16:46:53.483Z,96211.81
2023-03-16T16:49:24.862Z,96218.88
2023-03-16T16:51:53.357Z,96211.00
2023-03-16T16:54:23.287Z,96211.41
2023-03-16T16:56:54.046Z,96214.34
2023-03-16T16:59:23.830Z,96212.50
2023-03-16T17:01:53.980Z,96213.25
2023-03-16T17:04:26.916Z,96219.50
2023-03-16T17:06:58.278Z,96215.75
2023-03-16T17:09:31.026Z,96211.06
2023-03-16T17:12:00.054Z,96208.13
2023-03-16T17:14:28.683Z,96216.75
2023-03-16T17:16:59.777Z,96213.78
2023-03-16T17:19:29.528Z,96207.31
2023-03-16T17:22:01.519Z,96208.53
2023-03-16T17:24:32.577Z,96220.72
2023-03-16T17:27:01.693Z,96217.91
2023-03-16T17:29:36.514Z,96221.00
2023-03-16T17:32:15.025Z,96211.41
2023-03-16T17:34:44.140Z,96213.19
2023-03-16T17:37:16.386Z,96222.47
2023-03-16T17:39:44.195Z,96221.25
2023-03-16T17:42:15.840Z,96217.38
2023-03-16T17:44:49.043Z,96224.22
2023-03-16T17:47:19.111Z,96221.41
2023-03-16T17:49:48.953Z,96220.72
2023-03-16T17:52:20.973Z,96225.88
2023-03-16T17:54:49.838Z,96222.97
2023-03-16T17:57:19.752Z,96225.38
2023-03-16T17:59:48.252Z,96214.41
2023-03-16T18:02:41.365Z,96211.00
2023-03-16T18:05:18.899Z,96211.31
2023-03-16T18:07:47.635Z,96209.69
2023-03-16T18:10:21.918Z,96206.59
2023-03-16T18:12:56.802Z,96202.91
2023-03-16T18:15:31.474Z,96211.56
2023-03-16T18:18:00.311Z,96207.06
2023-03-16T18:20:33.623Z,96212.22
2023-03-16T18:23:11.350Z,96206.84
2023-03-16T18:25:40.276Z,96208.81
2023-03-16T18:28:09.800Z,96208.00
2023-03-16T18:30:41.286Z,96211.81
2023-03-16T18:33:17.281Z,96217.25
2023-03-16T18:35:51.555Z,96211.53
2023-03-16T18:38:26.168Z,96209.78
2023-03-16T18:40:53.871Z,96206.69
2023-03-16T18:43:21.565Z,96213.94
2023-03-16T18:45:50.489Z,96212.53
2023-03-16T18:48:26.932Z,96204.56
2023-03-16T18:50:56.423Z,96211.03
2023-03-16T18:53:27.819Z,96207.31
2023-03-16T18:55:57.388Z,96203.84
2023-03-16T18:58:26.861Z,96197.44
2023-03-16T19:00:56.394Z,96200.44
2023-03-16T19:03:26.570Z,96209.34
2023-03-16T19:05:58.009Z,96199.19
2023-03-16T19:08:27.489Z,96198.66
2023-03-16T19:10:57.589Z,96193.88
2023-03-16T19:13:26.698Z,96196.91
2023-03-16T19:16:00.329Z,96198.59
2023-03-16T19:18:29.245Z,96197.28
2023-03-16T19:21:04.459Z,96195.44
2023-03-16T19:23:36.333Z,96207.78
2023-03-16T19:26:04.589Z,96192.28
2023-03-16T19:28:36.428Z,96197.91
2023-03-16T19:31:09.807Z,96197.41
2023-03-16T19:33:38.805Z,96192.91
2023-03-16T19:36:16.847Z,96189.97
2023-03-16T19:38:50.293Z,96193.22
2023-03-16T19:41:27.808Z,96191.94
2023-03-16T19:43:59.480Z,96194.44
2023-03-16T19:46:28.284Z,96192.84
2023-03-16T19:48:56.609Z,96190.19
2023-03-16T19:51:29.191Z,96196.91
2023-03-16T19:54:01.290Z,96190.50
2023-03-16T19:56:29.324Z,96191.09
2023-03-16T19:58:57.202Z,96191.94
2023-03-16T20:01:32.259Z,96194.91
2023-03-16T20:04:01.450Z,96194.06
2023-03-16T20:06:33.183Z,96187.41
2023-03-16T20:09:03.979Z,96182.03
2023-03-16T20:11:33.768Z,96175.63
2023-03-16T20:14:03.496Z,96180.78
2023-03-16T20:16:33.492Z,96180.53
2023-03-16T20:19:05.151Z,96184.59
2023-03-16T20:21:36.100Z,96178.72
2023-03-16T20:24:04.415Z,96174.44
2023-03-16T20:26:33.163Z,96176.66
2023-03-16T20:29:01.552Z,96171.63
2023-03-16T20:31:34.403Z,96180.81
2023-03-16T20:34:04.688Z,96173.84
2023-03-16T20:36:32.839Z,96175.22
2023-03-16T20:39:01.929Z,96166.91
2023-03-16T20:41:32.880Z,96181.13
2023-03-16T20:44:02.138Z,96169.09
2023-03-16T20:46:32.781Z,96168.56
2023-03-16T20:49:02.315Z,96173.94
2023-03-16T20:51:30.474Z,96175.31
2023-03-16T20:54:00.692Z,96165.13
2023-03-16T20:56:31.422Z,96169.41
2023-03-16T20:58:59.228Z,96164.88
2023-03-16T21:01:29.811Z,96165.72
2023-03-16T21:04:00.080Z,96169.47
2023-03-16T21:06:31.698Z,96162.00
2023-03-16T21:09:02.449Z,96158.78
2023-03-16T21:11:35.864Z,96159.69
2023-03-16T21:14:04.401Z,96160.28
2023-03-16T21:16:32.373Z,96156.84
2023-03-16T21:19:00.136Z,96165.69
2023-03-16T21:21:27.858Z,96155.81
2023-03-16T21:23:55.609Z,96155.53
2023-03-16T21:26:26.288Z,96148.34
2023-03-16T21:28:58.277Z,96153.75
2023-03-16T21:31:27.121Z,96151.63
2023-03-16T21:33:58.797Z,96150.56
2023-03-16T21:36:28.133Z,96150.63
2023-03-16T21:38:57.218Z,96146.59
2023-03-16T21:41:25.573Z,96150.94
2023-03-16T21:43:54.411Z,96147.97
2023-03-16T21:46:25.516Z,96152.53
2023-03-16T21:48:56.090Z,96150.94
2023-03-16T21:51:28.524Z,96146.63
2023-03-16T21:53:57.994Z,96148.00
2023-03-16T21:56:26.515Z,96132.50
2023-03-16T21:58:55.604Z,96133.56
2023-03-16T22:01:26.693Z,96129.56
2023-03-16T22:03:57.687Z,96135.72
2023-03-16T22:06:27.879Z,96137.38
2023-03-16T22:08:56.310Z,96139.00
2023-03-16T22:11:27.718Z,96133.66
2023-03-16T22:13:56.960Z,96135.00
2023-03-16T22:16:28.420Z,96128.84
2023-03-16T22:18:57.956Z,96122.19
2023-03-16T22:21:33.340Z,96125.91
2023-03-16T22:24:02.520Z,96121.94
2023-03-16T22:26:30.771Z,96120.88
2023-03-16T22:29:00.844Z,96121.72
2023-03-16T22:31:34.431Z,96122.00
2023-03-16T22:34:04.601Z,96117.22
2023-03-16T22:36:34.349Z,96116.69
2023-03-16T22:39:05.338Z,96115.38
2023-03-16T22:41:33.290Z,96113.00
2023-03-16T22:44:01.601Z,96108.47
2023-03-16T22:46:31.283Z,96108.72
2023-03-16T22:48:59.998Z,96102.31
2023-03-16T22:51:30.769Z,96111.44
2023-03-16T22:54:01.917Z,96110.38
2023-03-16T22:56:31.987Z,96112.53
2023-03-16T22:59:02.738Z,96108.00
2023-03-16T23:01:34.774Z,96105.06
2023-03-16T23:04:03.307Z,96105.34
2023-03-16T23:06:32.482Z,96099.72
2023-03-16T23:09:00.396Z,96100.25
2023-03-16T23:11:30.837Z,96095.22
2023-03-16T23:13:59.696Z,96087.50
2023-03-16T23:16:30.377Z,96086.97
2023-03-16T23:18:59.653Z,96084.28
2023-03-16T23:21:29.887Z,96084.84
2023-03-16T23:24:04.082Z,96089.69
2023-03-16T23:26:33.082Z,96088.63
2023-03-16T23:29:00.918Z,96081.69
2023-03-16T23:31:28.852Z,96073.66
2023-03-16T23:33:56.899Z,96068.84
2023-03-16T23:36:27.269Z,96070.44
2023-03-16T23:38:55.238Z,96073.94
2023-03-16T23:41:25.783Z,96066.19
2023-03-16T23:43:54.454Z,96065.34
2023-03-16T23:46:24.875Z,96070.44
2023-03-16T23:48:55.062Z,96061.13
2023-03-16T23:51:27.086Z,96057.38
2023-03-16T23:53:56.566Z,96055.00
2023-03-16T23:56:25.182Z,96061.41
2023-03-16T23:58:52.895Z,96064.91
